sensor_id;sensor_type;location;lat;lon;timestamp;P1;durP1;ratioP1;P2;durP2;ratioP2
50350;SDS011;36250;48.740;22.174;2022-11-20T00:01:34;28.65;;;16.50;;
50350;SDS011;36250;48.740;22.174;2022-11-20T00:04:00;24.92;;;16.63;;
50350;SDS011;36250;48.740;22.174;2022-11-20T00:06:26;22.50;;;14.25;;
50350;SDS011;36250;48.740;22.174;2022-11-20T00:08:54;25.67;;;14.98;;
50350;SDS011;36250;48.740;22.174;2022-11-20T00:11:22;23.60;;;15.50;;
50350;SDS011;36250;48.740;22.174;2022-11-20T00:13:49;35.58;;;24.50;;
50350;SDS011;36250;48.740;22.174;2022-11-20T00:16:17;25.80;;;16.40;;
50350;SDS011;36250;48.740;22.174;2022-11-20T00:18:45;46.40;;;28.50;;
50350;SDS011;36250;48.740;22.174;2022-11-20T00:21:12;44.10;;;31.20;;
50350;SDS011;36250;48.740;22.174;2022-11-20T00:23:40;30.17;;;16.23;;
50350;SDS011;36250;48.740;22.174;2022-11-20T00:26:09;25.50;;;17.30;;
50350;SDS011;36250;48.740;22.174;2022-11-20T00:28:35;38.50;;;24.20;;
50350;SDS011;36250;48.740;22.174;2022-11-20T00:31:05;27.17;;;16.73;;
50350;SDS011;36250;48.740;22.174;2022-11-20T00:33:31;23.60;;;15.23;;
50350;SDS011;36250;48.740;22.174;2022-11-20T00:36:04;27.35;;;17.42;;
50350;SDS011;36250;48.740;22.174;2022-11-20T00:38:31;23.50;;;14.30;;
50350;SDS011;36250;48.740;22.174;2022-11-20T00:40:57;25.75;;;14.50;;
50350;SDS011;36250;48.740;22.174;2022-11-20T00:43:24;25.63;;;15.60;;
50350;SDS011;36250;48.740;22.174;2022-11-20T00:45:50;36.65;;;19.73;;
50350;SDS011;36250;48.740;22.174;2022-11-20T00:48:15;29.70;;;16.13;;
50350;SDS011;36250;48.740;22.174;2022-11-20T00:50:41;25.20;;;14.40;;
50350;SDS011;36250;48.740;22.174;2022-11-20T00:53:06;19.10;;;12.52;;
50350;SDS011;36250;48.740;22.174;2022-11-20T00:55:32;18.38;;;12.15;;
50350;SDS011;36250;48.740;22.174;2022-11-20T00:57:57;18.23;;;12.45;;
50350;SDS011;36250;48.740;22.174;2022-11-20T01:00:22;21.52;;;11.98;;
50350;SDS011;36250;48.740;22.174;2022-11-20T01:02:47;19.00;;;11.23;;
50350;SDS011;36250;48.740;22.174;2022-11-20T01:05:13;18.35;;;11.07;;
50350;SDS011;36250;48.740;22.174;2022-11-20T01:07:38;20.52;;;11.85;;
50350;SDS011;36250;48.740;22.174;2022-11-20T01:10:04;20.95;;;13.88;;
50350;SDS011;36250;48.740;22.174;2022-11-20T01:12:29;23.65;;;16.05;;
50350;SDS011;36250;48.740;22.174;2022-11-20T01:14:54;22.25;;;14.75;;
50350;SDS011;36250;48.740;22.174;2022-11-20T01:17:20;19.70;;;12.70;;
50350;SDS011;36250;48.740;22.174;2022-11-20T01:19:47;20.95;;;12.23;;
50350;SDS011;36250;48.740;22.174;2022-11-20T01:22:14;21.98;;;15.20;;
50350;SDS011;36250;48.740;22.174;2022-11-20T01:24:39;20.90;;;13.07;;
50350;SDS011;36250;48.740;22.174;2022-11-20T01:27:05;18.52;;;12.02;;
50350;SDS011;36250;48.740;22.174;2022-11-20T01:29:30;21.35;;;13.02;;
50350;SDS011;36250;48.740;22.174;2022-11-20T01:31:55;20.73;;;13.80;;
50350;SDS011;36250;48.740;22.174;2022-11-20T01:34:21;44.45;;;25.45;;
50350;SDS011;36250;48.740;22.174;2022-11-20T01:36:47;56.30;;;27.02;;
50350;SDS011;36250;48.740;22.174;2022-11-20T01:39:14;27.52;;;16.67;;
50350;SDS011;36250;48.740;22.174;2022-11-20T01:41:44;24.77;;;15.35;;
50350;SDS011;36250;48.740;22.174;2022-11-20T01:47:25;22.20;;;13.80;;
50350;SDS011;36250;48.740;22.174;2022-11-20T01:50:10;19.42;;;13.52;;
50350;SDS011;36250;48.740;22.174;2022-11-20T01:52:41;21.00;;;13.43;;
50350;SDS011;36250;48.740;22.174;2022-11-20T01:55:18;20.73;;;13.10;;
50350;SDS011;36250;48.740;22.174;2022-11-20T01:57:46;19.58;;;12.70;;
50350;SDS011;36250;48.740;22.174;2022-11-20T02:00:14;19.13;;;12.13;;
50350;SDS011;36250;48.740;22.174;2022-11-20T02:02:42;20.77;;;12.43;;
50350;SDS011;36250;48.740;22.174;2022-11-20T02:05:18;17.50;;;11.82;;
50350;SDS011;36250;48.740;22.174;2022-11-20T02:07:57;18.63;;;11.55;;
50350;SDS011;36250;48.740;22.174;2022-11-20T02:10:23;18.13;;;11.55;;
50350;SDS011;36250;48.740;22.174;2022-11-20T02:12:49;16.27;;;10.88;;
50350;SDS011;36250;48.740;22.174;2022-11-20T02:15:34;18.13;;;11.82;;
50350;SDS011;36250;48.740;22.174;2022-11-20T02:17:59;19.13;;;12.63;;
50350;SDS011;36250;48.740;22.174;2022-11-20T02:20:25;19.08;;;12.52;;
50350;SDS011;36250;48.740;22.174;2022-11-20T02:22:52;20.08;;;11.85;;
50350;SDS011;36250;48.740;22.174;2022-11-20T02:25:24;16.88;;;11.40;;
50350;SDS011;36250;48.740;22.174;2022-11-20T02:27:52;18.80;;;10.95;;
50350;SDS011;36250;48.740;22.174;2022-11-20T02:30:17;19.83;;;12.60;;
50350;SDS011;36250;48.740;22.174;2022-11-20T02:32:43;16.73;;;12.48;;
50350;SDS011;36250;48.740;22.174;2022-11-20T02:35:35;19.52;;;12.13;;
50350;SDS011;36250;48.740;22.174;2022-11-20T02:37:55;17.10;;;11.13;;
50350;SDS011;36250;48.740;22.174;2022-11-20T02:40:22;19.35;;;12.65;;
50350;SDS011;36250;48.740;22.174;2022-11-20T02:42:48;21.67;;;12.82;;
50350;SDS011;36250;48.740;22.174;2022-11-20T02:45:17;26.27;;;15.35;;
50350;SDS011;36250;48.740;22.174;2022-11-20T02:47:42;19.88;;;13.18;;
50350;SDS011;36250;48.740;22.174;2022-11-20T02:50:07;24.58;;;14.93;;
50350;SDS011;36250;48.740;22.174;2022-11-20T02:52:33;27.25;;;15.73;;
50350;SDS011;36250;48.740;22.174;2022-11-20T02:54:58;22.25;;;13.60;;
50350;SDS011;36250;48.740;22.174;2022-11-20T02:57:24;22.33;;;14.23;;
50350;SDS011;36250;48.740;22.174;2022-11-20T02:59:49;22.33;;;13.80;;
50350;SDS011;36250;48.740;22.174;2022-11-20T03:02:14;22.65;;;13.68;;
50350;SDS011;36250;48.740;22.174;2022-11-20T03:04:40;21.80;;;13.63;;
50350;SDS011;36250;48.740;22.174;2022-11-20T03:07:05;20.15;;;11.45;;
50350;SDS011;36250;48.740;22.174;2022-11-20T03:09:30;19.60;;;11.93;;
50350;SDS011;36250;48.740;22.174;2022-11-20T03:11:55;19.55;;;11.73;;
50350;SDS011;36250;48.740;22.174;2022-11-20T03:14:21;18.73;;;12.85;;
50350;SDS011;36250;48.740;22.174;2022-11-20T03:16:46;18.75;;;12.43;;
50350;SDS011;36250;48.740;22.174;2022-11-20T03:19:12;19.20;;;12.32;;
50350;SDS011;36250;48.740;22.174;2022-11-20T03:21:38;25.40;;;14.35;;
50350;SDS011;36250;48.740;22.174;2022-11-20T03:24:03;23.92;;;13.40;;
50350;SDS011;36250;48.740;22.174;2022-11-20T03:26:29;24.45;;;14.68;;
50350;SDS011;36250;48.740;22.174;2022-11-20T03:28:56;19.67;;;12.00;;
50350;SDS011;36250;48.740;22.174;2022-11-20T03:31:26;17.35;;;11.60;;
50350;SDS011;36250;48.740;22.174;2022-11-20T03:33:53;17.65;;;12.25;;
50350;SDS011;36250;48.740;22.174;2022-11-20T03:36:19;20.65;;;13.00;;
50350;SDS011;36250;48.740;22.174;2022-11-20T03:38:45;21.65;;;13.38;;
50350;SDS011;36250;48.740;22.174;2022-11-20T03:41:12;22.58;;;13.98;;
50350;SDS011;36250;48.740;22.174;2022-11-20T03:43:40;20.02;;;13.05;;
50350;SDS011;36250;48.740;22.174;2022-11-20T03:46:06;22.58;;;13.23;;
50350;SDS011;36250;48.740;22.174;2022-11-20T03:48:32;19.42;;;11.95;;
50350;SDS011;36250;48.740;22.174;2022-11-20T03:51:09;18.02;;;11.88;;
50350;SDS011;36250;48.740;22.174;2022-11-20T03:53:37;19.27;;;13.73;;
50350;SDS011;36250;48.740;22.174;2022-11-20T03:56:03;19.17;;;12.60;;
50350;SDS011;36250;48.740;22.174;2022-11-20T03:58:29;21.10;;;12.88;;
50350;SDS011;36250;48.740;22.174;2022-11-20T04:00:55;19.38;;;12.05;;
50350;SDS011;36250;48.740;22.174;2022-11-20T04:03:20;20.05;;;12.60;;
50350;SDS011;36250;48.740;22.174;2022-11-20T04:05:45;20.08;;;12.43;;
50350;SDS011;36250;48.740;22.174;2022-11-20T04:08:10;19.55;;;13.10;;
50350;SDS011;36250;48.740;22.174;2022-11-20T04:10:36;17.00;;;10.93;;
50350;SDS011;36250;48.740;22.174;2022-11-20T04:13:01;19.45;;;12.27;;
50350;SDS011;36250;48.740;22.174;2022-11-20T04:15:26;19.30;;;12.68;;
50350;SDS011;36250;48.740;22.174;2022-11-20T04:17:52;18.90;;;12.95;;
50350;SDS011;36250;48.740;22.174;2022-11-20T04:20:19;18.15;;;12.20;;
50350;SDS011;36250;48.740;22.174;2022-11-20T04:22:44;23.30;;;14.30;;
50350;SDS011;36250;48.740;22.174;2022-11-20T04:25:09;22.02;;;14.07;;
50350;SDS011;36250;48.740;22.174;2022-11-20T04:27:35;20.88;;;13.02;;
50350;SDS011;36250;48.740;22.174;2022-11-20T04:30:00;23.00;;;14.32;;
50350;SDS011;36250;48.740;22.174;2022-11-20T04:32:25;20.38;;;13.02;;
50350;SDS011;36250;48.740;22.174;2022-11-20T04:34:51;25.92;;;14.20;;
50350;SDS011;36250;48.740;22.174;2022-11-20T04:37:16;24.65;;;15.32;;
50350;SDS011;36250;48.740;22.174;2022-11-20T04:39:42;21.70;;;14.40;;
50350;SDS011;36250;48.740;22.174;2022-11-20T04:42:08;24.08;;;15.05;;
50350;SDS011;36250;48.740;22.174;2022-11-20T04:44:52;21.17;;;14.27;;
50350;SDS011;36250;48.740;22.174;2022-11-20T04:47:17;24.02;;;14.55;;
50350;SDS011;36250;48.740;22.174;2022-11-20T04:49:43;23.00;;;14.73;;
50350;SDS011;36250;48.740;22.174;2022-11-20T04:52:08;26.38;;;16.33;;
50350;SDS011;36250;48.740;22.174;2022-11-20T04:54:33;28.50;;;17.00;;
50350;SDS011;36250;48.740;22.174;2022-11-20T04:56:59;28.25;;;16.83;;
50350;SDS011;36250;48.740;22.174;2022-11-20T04:59:24;24.65;;;15.60;;
50350;SDS011;36250;48.740;22.174;2022-11-20T05:01:49;24.65;;;13.40;;
50350;SDS011;36250;48.740;22.174;2022-11-20T05:04:14;22.05;;;14.05;;
50350;SDS011;36250;48.740;22.174;2022-11-20T05:06:40;28.58;;;19.67;;
50350;SDS011;36250;48.740;22.174;2022-11-20T05:09:05;35.33;;;22.10;;
50350;SDS011;36250;48.740;22.174;2022-11-20T05:11:31;30.83;;;20.38;;
50350;SDS011;36250;48.740;22.174;2022-11-20T05:13:58;32.40;;;21.92;;
50350;SDS011;36250;48.740;22.174;2022-11-20T05:16:24;32.83;;;21.00;;
50350;SDS011;36250;48.740;22.174;2022-11-20T05:18:50;28.52;;;18.95;;
50350;SDS011;36250;48.740;22.174;2022-11-20T05:21:17;20.67;;;13.73;;
50350;SDS011;36250;48.740;22.174;2022-11-20T05:23:43;26.90;;;14.68;;
50350;SDS011;36250;48.740;22.174;2022-11-20T05:26:13;19.17;;;12.80;;
50350;SDS011;36250;48.740;22.174;2022-11-20T05:28:40;22.92;;;13.05;;
50350;SDS011;36250;48.740;22.174;2022-11-20T05:31:07;23.23;;;13.23;;
50350;SDS011;36250;48.740;22.174;2022-11-20T05:33:34;20.17;;;13.30;;
50350;SDS011;36250;48.740;22.174;2022-11-20T05:36:00;23.20;;;13.80;;
50350;SDS011;36250;48.740;22.174;2022-11-20T05:38:26;23.73;;;14.65;;
50350;SDS011;36250;48.740;22.174;2022-11-20T05:40:51;18.75;;;12.82;;
50350;SDS011;36250;48.740;22.174;2022-11-20T05:43:17;23.85;;;13.98;;
50350;SDS011;36250;48.740;22.174;2022-11-20T05:45:42;24.38;;;15.63;;
50350;SDS011;36250;48.740;22.174;2022-11-20T05:48:07;26.60;;;16.65;;
50350;SDS011;36250;48.740;22.174;2022-11-20T05:50:33;29.35;;;18.45;;
50350;SDS011;36250;48.740;22.174;2022-11-20T05:52:58;38.25;;;21.35;;
50350;SDS011;36250;48.740;22.174;2022-11-20T05:55:24;43.97;;;24.10;;
50350;SDS011;36250;48.740;22.174;2022-11-20T05:57:51;38.53;;;21.92;;
50350;SDS011;36250;48.740;22.174;2022-11-20T06:00:18;50.67;;;27.98;;
50350;SDS011;36250;48.740;22.174;2022-11-20T06:02:43;42.13;;;23.23;;
50350;SDS011;36250;48.740;22.174;2022-11-20T06:05:09;30.40;;;19.65;;
50350;SDS011;36250;48.740;22.174;2022-11-20T06:07:34;38.67;;;22.75;;
50350;SDS011;36250;48.740;22.174;2022-11-20T06:09:59;42.15;;;23.80;;
50350;SDS011;36250;48.740;22.174;2022-11-20T06:12:25;41.20;;;23.20;;
50350;SDS011;36250;48.740;22.174;2022-11-20T06:14:50;40.58;;;25.80;;
50350;SDS011;36250;48.740;22.174;2022-11-20T06:17:15;35.63;;;22.38;;
50350;SDS011;36250;48.740;22.174;2022-11-20T06:19:41;34.92;;;21.55;;
50350;SDS011;36250;48.740;22.174;2022-11-20T06:22:06;28.52;;;18.23;;
50350;SDS011;36250;48.740;22.174;2022-11-20T06:24:31;35.95;;;21.77;;
50350;SDS011;36250;48.740;22.174;2022-11-20T06:26:56;34.45;;;21.98;;
50350;SDS011;36250;48.740;22.174;2022-11-20T06:29:22;34.72;;;21.88;;
50350;SDS011;36250;48.740;22.174;2022-11-20T06:31:47;38.05;;;22.10;;
50350;SDS011;36250;48.740;22.174;2022-11-20T06:34:13;40.17;;;24.73;;
50350;SDS011;36250;48.740;22.174;2022-11-20T06:36:38;40.78;;;23.02;;
50350;SDS011;36250;48.740;22.174;2022-11-20T06:39:03;35.42;;;21.77;;
50350;SDS011;36250;48.740;22.174;2022-11-20T06:41:29;39.45;;;21.95;;
50350;SDS011;36250;48.740;22.174;2022-11-20T06:43:54;34.55;;;21.42;;
50350;SDS011;36250;48.740;22.174;2022-11-20T06:46:20;34.67;;;22.02;;
50350;SDS011;36250;48.740;22.174;2022-11-20T06:48:46;35.75;;;22.45;;
50350;SDS011;36250;48.740;22.174;2022-11-20T06:51:12;36.33;;;23.20;;
50350;SDS011;36250;48.740;22.174;2022-11-20T06:53:38;37.47;;;22.88;;
50350;SDS011;36250;48.740;22.174;2022-11-20T06:56:03;34.25;;;21.83;;
50350;SDS011;36250;48.740;22.174;2022-11-20T06:58:29;35.08;;;22.60;;
50350;SDS011;36250;48.740;22.174;2022-11-20T07:00:59;35.47;;;21.80;;
50350;SDS011;36250;48.740;22.174;2022-11-20T07:03:43;36.00;;;23.08;;
50350;SDS011;36250;48.740;22.174;2022-11-20T07:06:08;30.27;;;19.33;;
50350;SDS011;36250;48.740;22.174;2022-11-20T07:08:34;31.85;;;21.75;;
50350;SDS011;36250;48.740;22.174;2022-11-20T07:11:01;31.67;;;19.92;;
50350;SDS011;36250;48.740;22.174;2022-11-20T07:13:28;33.17;;;20.65;;
50350;SDS011;36250;48.740;22.174;2022-11-20T07:15:54;36.05;;;21.50;;
50350;SDS011;36250;48.740;22.174;2022-11-20T07:18:19;35.65;;;21.75;;
50350;SDS011;36250;48.740;22.174;2022-11-20T07:20:45;32.45;;;19.95;;
50350;SDS011;36250;48.740;22.174;2022-11-20T07:23:10;36.90;;;23.42;;
50350;SDS011;36250;48.740;22.174;2022-11-20T07:25:36;31.10;;;20.38;;
50350;SDS011;36250;48.740;22.174;2022-11-20T07:28:01;29.95;;;19.10;;
50350;SDS011;36250;48.740;22.174;2022-11-20T07:30:30;30.67;;;18.25;;
50350;SDS011;36250;48.740;22.174;2022-11-20T07:32:56;29.15;;;17.73;;
50350;SDS011;36250;48.740;22.174;2022-11-20T07:35:22;31.15;;;19.30;;
50350;SDS011;36250;48.740;22.174;2022-11-20T07:37:49;29.20;;;20.15;;
50350;SDS011;36250;48.740;22.174;2022-11-20T07:40:14;27.90;;;18.88;;
50350;SDS011;36250;48.740;22.174;2022-11-20T07:42:49;30.35;;;19.23;;
50350;SDS011;36250;48.740;22.174;2022-11-20T07:45:19;38.30;;;24.98;;
50350;SDS011;36250;48.740;22.174;2022-11-20T07:47:45;40.70;;;26.00;;
50350;SDS011;36250;48.740;22.174;2022-11-20T07:50:11;72.22;;;43.60;;
50350;SDS011;36250;48.740;22.174;2022-11-20T07:52:37;67.03;;;39.42;;
50350;SDS011;36250;48.740;22.174;2022-11-20T07:55:02;36.03;;;23.90;;
50350;SDS011;36250;48.740;22.174;2022-11-20T07:57:28;26.90;;;16.90;;
50350;SDS011;36250;48.740;22.174;2022-11-20T07:59:53;24.27;;;16.30;;
50350;SDS011;36250;48.740;22.174;2022-11-20T08:02:19;24.48;;;16.35;;
50350;SDS011;36250;48.740;22.174;2022-11-20T08:04:44;27.70;;;16.77;;
50350;SDS011;36250;48.740;22.174;2022-11-20T08:07:09;26.00;;;17.30;;
50350;SDS011;36250;48.740;22.174;2022-11-20T08:09:34;26.58;;;17.13;;
50350;SDS011;36250;48.740;22.174;2022-11-20T08:12:00;25.23;;;16.55;;
50350;SDS011;36250;48.740;22.174;2022-11-20T08:14:43;25.52;;;16.05;;
50350;SDS011;36250;48.740;22.174;2022-11-20T08:17:09;26.67;;;17.35;;
50350;SDS011;36250;48.740;22.174;2022-11-20T08:19:35;31.05;;;17.17;;
50350;SDS011;36250;48.740;22.174;2022-11-20T08:22:00;26.67;;;16.13;;
50350;SDS011;36250;48.740;22.174;2022-11-20T08:24:25;23.30;;;15.23;;
50350;SDS011;36250;48.740;22.174;2022-11-20T08:26:51;27.75;;;17.35;;
50350;SDS011;36250;48.740;22.174;2022-11-20T08:29:17;22.95;;;16.02;;
50350;SDS011;36250;48.740;22.174;2022-11-20T08:31:42;26.65;;;18.17;;
50350;SDS011;36250;48.740;22.174;2022-11-20T08:34:07;29.15;;;16.58;;
50350;SDS011;36250;48.740;22.174;2022-11-20T08:36:33;23.25;;;15.48;;
50350;SDS011;36250;48.740;22.174;2022-11-20T08:38:59;27.08;;;17.08;;
50350;SDS011;36250;48.740;22.174;2022-11-20T08:41:25;23.90;;;16.67;;
50350;SDS011;36250;48.740;22.174;2022-11-20T08:44:01;25.25;;;15.85;;
50350;SDS011;36250;48.740;22.174;2022-11-20T08:46:31;23.83;;;14.23;;
50350;SDS011;36250;48.740;22.174;2022-11-20T08:48:58;26.73;;;15.25;;
50350;SDS011;36250;48.740;22.174;2022-11-20T08:51:24;70.88;;;41.15;;
50350;SDS011;36250;48.740;22.174;2022-11-20T08:53:49;45.78;;;26.67;;
50350;SDS011;36250;48.740;22.174;2022-11-20T08:56:15;32.60;;;19.08;;
50350;SDS011;36250;48.740;22.174;2022-11-20T08:58:40;46.95;;;31.77;;
50350;SDS011;36250;48.740;22.174;2022-11-20T09:01:06;23.92;;;17.33;;
50350;SDS011;36250;48.740;22.174;2022-11-20T09:03:31;26.45;;;16.45;;
50350;SDS011;36250;48.740;22.174;2022-11-20T09:05:58;20.70;;;14.82;;
50350;SDS011;36250;48.740;22.174;2022-11-20T09:08:25;20.20;;;14.25;;
50350;SDS011;36250;48.740;22.174;2022-11-20T09:10:51;29.85;;;19.65;;
50350;SDS011;36250;48.740;22.174;2022-11-20T09:13:20;27.58;;;19.65;;
50350;SDS011;36250;48.740;22.174;2022-11-20T09:15:47;26.88;;;18.17;;
50350;SDS011;36250;48.740;22.174;2022-11-20T09:18:17;30.45;;;18.95;;
50350;SDS011;36250;48.740;22.174;2022-11-20T09:20:42;38.75;;;21.70;;
50350;SDS011;36250;48.740;22.174;2022-11-20T09:23:07;30.10;;;19.27;;
50350;SDS011;36250;48.740;22.174;2022-11-20T09:25:33;26.30;;;17.30;;
50350;SDS011;36250;48.740;22.174;2022-11-20T09:27:58;26.70;;;18.92;;
50350;SDS011;36250;48.740;22.174;2022-11-20T09:30:24;29.70;;;17.98;;
50350;SDS011;36250;48.740;22.174;2022-11-20T09:32:49;26.08;;;18.17;;
50350;SDS011;36250;48.740;22.174;2022-11-20T09:35:15;23.90;;;15.32;;
50350;SDS011;36250;48.740;22.174;2022-11-20T09:37:40;26.60;;;15.55;;
50350;SDS011;36250;48.740;22.174;2022-11-20T09:40:06;35.83;;;22.88;;
50350;SDS011;36250;48.740;22.174;2022-11-20T09:45:15;22.52;;;15.32;;
50350;SDS011;36250;48.740;22.174;2022-11-20T09:47:51;24.00;;;16.48;;
50350;SDS011;36250;48.740;22.174;2022-11-20T09:50:36;23.80;;;15.77;;
50350;SDS011;36250;48.740;22.174;2022-11-20T09:55:43;19.90;;;13.85;;
50350;SDS011;36250;48.740;22.174;2022-11-20T09:58:21;20.70;;;14.73;;
50350;SDS011;36250;48.740;22.174;2022-11-20T10:00:56;21.42;;;15.57;;
50350;SDS011;36250;48.740;22.174;2022-11-20T10:03:37;20.65;;;13.07;;
50350;SDS011;36250;48.740;22.174;2022-11-20T10:06:18;19.02;;;13.38;;
50350;SDS011;36250;48.740;22.174;2022-11-20T10:08:55;21.80;;;15.38;;
50350;SDS011;36250;48.740;22.174;2022-11-20T10:16:51;22.45;;;16.00;;
50350;SDS011;36250;48.740;22.174;2022-11-20T10:25:38;20.55;;;12.95;;
50350;SDS011;36250;48.740;22.174;2022-11-20T10:28:24;20.60;;;13.45;;
50350;SDS011;36250;48.740;22.174;2022-11-20T10:31:39;20.50;;;14.65;;
50350;SDS011;36250;48.740;22.174;2022-11-20T10:34:16;22.40;;;14.35;;
50350;SDS011;36250;48.740;22.174;2022-11-20T10:37:29;22.42;;;13.60;;
50350;SDS011;36250;48.740;22.174;2022-11-20T10:39:41;21.45;;;14.88;;
50350;SDS011;36250;48.740;22.174;2022-11-20T10:42:17;22.17;;;14.45;;
50350;SDS011;36250;48.740;22.174;2022-11-20T10:44:52;20.50;;;13.80;;
50350;SDS011;36250;48.740;22.174;2022-11-20T10:47:26;20.10;;;13.55;;
50350;SDS011;36250;48.740;22.174;2022-11-20T10:49:53;18.55;;;13.13;;
50350;SDS011;36250;48.740;22.174;2022-11-20T10:55:04;20.05;;;12.77;;
50350;SDS011;36250;48.740;22.174;2022-11-20T11:00:17;25.42;;;17.25;;
50350;SDS011;36250;48.740;22.174;2022-11-20T11:02:44;26.42;;;16.52;;
50350;SDS011;36250;48.740;22.174;2022-11-20T11:08:02;45.58;;;30.52;;
50350;SDS011;36250;48.740;22.174;2022-11-20T11:10:39;26.38;;;15.27;;
50350;SDS011;36250;48.740;22.174;2022-11-20T11:13:07;26.58;;;17.42;;
50350;SDS011;36250;48.740;22.174;2022-11-20T11:15:43;22.42;;;15.25;;
50350;SDS011;36250;48.740;22.174;2022-11-20T11:18:22;26.90;;;19.20;;
50350;SDS011;36250;48.740;22.174;2022-11-20T11:20:58;24.40;;;15.00;;
50350;SDS011;36250;48.740;22.174;2022-11-20T11:26:18;33.65;;;23.23;;
50350;SDS011;36250;48.740;22.174;2022-11-20T11:29:01;20.23;;;13.80;;
50350;SDS011;36250;48.740;22.174;2022-11-20T11:36:32;20.40;;;14.13;;
50350;SDS011;36250;48.740;22.174;2022-11-20T11:38:59;21.90;;;14.65;;
50350;SDS011;36250;48.740;22.174;2022-11-20T11:41:28;21.23;;;14.55;;
50350;SDS011;36250;48.740;22.174;2022-11-20T11:43:57;20.30;;;13.73;;
50350;SDS011;36250;48.740;22.174;2022-11-20T11:46:52;22.85;;;14.50;;
50350;SDS011;36250;48.740;22.174;2022-11-20T11:49:20;19.98;;;14.32;;
50350;SDS011;36250;48.740;22.174;2022-11-20T11:57:00;41.97;;;26.10;;
50350;SDS011;36250;48.740;22.174;2022-11-20T12:02:31;21.45;;;14.15;;
50350;SDS011;36250;48.740;22.174;2022-11-20T12:05:40;19.75;;;13.75;;
50350;SDS011;36250;48.740;22.174;2022-11-20T12:08:26;21.88;;;14.05;;
50350;SDS011;36250;48.740;22.174;2022-11-20T12:11:02;22.92;;;15.52;;
50350;SDS011;36250;48.740;22.174;2022-11-20T12:13:44;24.52;;;15.00;;
50350;SDS011;36250;48.740;22.174;2022-11-20T12:16:16;20.80;;;13.50;;
50350;SDS011;36250;48.740;22.174;2022-11-20T12:18:43;24.42;;;15.95;;
50350;SDS011;36250;48.740;22.174;2022-11-20T12:35:00;25.70;;;16.65;;
50350;SDS011;36250;48.740;22.174;2022-11-20T12:40:17;21.35;;;14.07;;
50350;SDS011;36250;48.740;22.174;2022-11-20T12:42:56;19.13;;;13.00;;
50350;SDS011;36250;48.740;22.174;2022-11-20T12:46:05;19.88;;;13.70;;
50350;SDS011;36250;48.740;22.174;2022-11-20T12:51:32;40.75;;;25.27;;
50350;SDS011;36250;48.740;22.174;2022-11-20T13:00:50;54.38;;;32.95;;
50350;SDS011;36250;48.740;22.174;2022-11-20T13:08:24;24.67;;;16.08;;
50350;SDS011;36250;48.740;22.174;2022-11-20T13:13:48;22.88;;;15.60;;
50350;SDS011;36250;48.740;22.174;2022-11-20T13:19:11;22.23;;;14.80;;
50350;SDS011;36250;48.740;22.174;2022-11-20T13:21:40;23.20;;;15.25;;
50350;SDS011;36250;48.740;22.174;2022-11-20T13:24:20;23.52;;;15.63;;
50350;SDS011;36250;48.740;22.174;2022-11-20T13:29:25;23.20;;;15.02;;
50350;SDS011;36250;48.740;22.174;2022-11-20T13:31:51;30.05;;;21.52;;
50350;SDS011;36250;48.740;22.174;2022-11-20T13:34:28;32.55;;;21.77;;
50350;SDS011;36250;48.740;22.174;2022-11-20T13:36:55;45.72;;;29.50;;
50350;SDS011;36250;48.740;22.174;2022-11-20T13:39:26;37.30;;;27.20;;
50350;SDS011;36250;48.740;22.174;2022-11-20T13:41:57;47.05;;;31.30;;
50350;SDS011;36250;48.740;22.174;2022-11-20T13:46:50;39.00;;;24.90;;
50350;SDS011;36250;48.740;22.174;2022-11-20T13:49:25;35.72;;;21.52;;
50350;SDS011;36250;48.740;22.174;2022-11-20T13:52:01;30.52;;;18.65;;
50350;SDS011;36250;48.740;22.174;2022-11-20T13:54:48;26.52;;;15.82;;
50350;SDS011;36250;48.740;22.174;2022-11-20T14:00:22;59.25;;;34.15;;
50350;SDS011;36250;48.740;22.174;2022-11-20T14:05:33;55.45;;;35.05;;
50350;SDS011;36250;48.740;22.174;2022-11-20T14:08:02;39.47;;;25.83;;
50350;SDS011;36250;48.740;22.174;2022-11-20T14:10:31;19.95;;;14.35;;
50350;SDS011;36250;48.740;22.174;2022-11-20T14:12:56;20.63;;;12.88;;
50350;SDS011;36250;48.740;22.174;2022-11-20T14:15:32;19.52;;;12.38;;
50350;SDS011;36250;48.740;22.174;2022-11-20T14:17:59;14.85;;;11.73;;
50350;SDS011;36250;48.740;22.174;2022-11-20T14:20:28;18.67;;;12.68;;
50350;SDS011;36250;48.740;22.174;2022-11-20T14:22:56;21.63;;;13.90;;
50350;SDS011;36250;48.740;22.174;2022-11-20T14:25:22;24.25;;;14.77;;
50350;SDS011;36250;48.740;22.174;2022-11-20T14:27:55;27.25;;;17.85;;
50350;SDS011;36250;48.740;22.174;2022-11-20T14:30:26;45.47;;;29.02;;
50350;SDS011;36250;48.740;22.174;2022-11-20T14:32:54;75.78;;;44.33;;
50350;SDS011;36250;48.740;22.174;2022-11-20T14:35:29;78.85;;;47.10;;
50350;SDS011;36250;48.740;22.174;2022-11-20T14:37:58;73.80;;;41.83;;
50350;SDS011;36250;48.740;22.174;2022-11-20T14:43:00;48.72;;;29.52;;
50350;SDS011;36250;48.740;22.174;2022-11-20T14:45:25;58.75;;;35.50;;
50350;SDS011;36250;48.740;22.174;2022-11-20T14:47:52;44.40;;;28.92;;
50350;SDS011;36250;48.740;22.174;2022-11-20T14:50:27;30.92;;;20.52;;
50350;SDS011;36250;48.740;22.174;2022-11-20T14:52:54;31.27;;;16.20;;
50350;SDS011;36250;48.740;22.174;2022-11-20T14:55:28;23.23;;;12.77;;
50350;SDS011;36250;48.740;22.174;2022-11-20T14:57:58;21.17;;;13.45;;
50350;SDS011;36250;48.740;22.174;2022-11-20T15:00:25;20.75;;;13.68;;
50350;SDS011;36250;48.740;22.174;2022-11-20T15:02:51;20.10;;;13.32;;
50350;SDS011;36250;48.740;22.174;2022-11-20T15:05:18;23.90;;;13.85;;
50350;SDS011;36250;48.740;22.174;2022-11-20T15:07:50;21.73;;;13.65;;
50350;SDS011;36250;48.740;22.174;2022-11-20T15:10:28;22.73;;;13.43;;
50350;SDS011;36250;48.740;22.174;2022-11-20T15:12:54;19.98;;;12.85;;
50350;SDS011;36250;48.740;22.174;2022-11-20T15:15:26;20.10;;;13.38;;
50350;SDS011;36250;48.740;22.174;2022-11-20T15:17:56;20.73;;;13.57;;
50350;SDS011;36250;48.740;22.174;2022-11-20T15:20:23;24.73;;;15.68;;
50350;SDS011;36250;48.740;22.174;2022-11-20T15:22:52;26.20;;;17.73;;
50350;SDS011;36250;48.740;22.174;2022-11-20T15:25:17;37.47;;;23.75;;
50350;SDS011;36250;48.740;22.174;2022-11-20T15:27:43;26.80;;;17.40;;
50350;SDS011;36250;48.740;22.174;2022-11-20T15:30:17;28.42;;;18.08;;
50350;SDS011;36250;48.740;22.174;2022-11-20T15:32:44;24.38;;;15.38;;
50350;SDS011;36250;48.740;22.174;2022-11-20T15:35:10;25.73;;;15.77;;
50350;SDS011;36250;48.740;22.174;2022-11-20T15:37:36;24.42;;;14.80;;
50350;SDS011;36250;48.740;22.174;2022-11-20T15:40:02;25.60;;;16.52;;
50350;SDS011;36250;48.740;22.174;2022-11-20T15:42:28;43.25;;;23.98;;
50350;SDS011;36250;48.740;22.174;2022-11-20T15:44:54;50.60;;;26.27;;
50350;SDS011;36250;48.740;22.174;2022-11-20T15:47:20;70.53;;;39.70;;
50350;SDS011;36250;48.740;22.174;2022-11-20T15:49:51;64.93;;;36.23;;
50350;SDS011;36250;48.740;22.174;2022-11-20T15:52:16;86.68;;;45.75;;